sensor_id;sensor_type;location;lat;lon;timestamp;pressure;altitude;pressure_sealevel;temperature;humidity
51261;BME280;61705;46.228;24.812;2023-11-25T00:00:28;95660.25;;;2.58;99.56
51261;BME280;61705;46.228;24.812;2023-11-25T00:02:54;95668.28;;;2.54;99.89
51261;BME280;61705;46.228;24.812;2023-11-25T00:05:21;95663.13;;;2.52;99.68
51261;BME280;61705;46.228;24.812;2023-11-25T00:07:48;95667.44;;;2.53;99.55
51261;BME280;61705;46.228;24.812;2023-11-25T00:10:16;95666.31;;;2.59;99.61
51261;BME280;61705;46.228;24.812;2023-11-25T00:12:45;95667.09;;;2.61;99.43
51261;BME280;61705;46.228;24.812;2023-11-25T00:15:13;95662.72;;;2.61;99.48
51261;BME280;61705;46.228;24.812;2023-11-25T00:17:41;95662.94;;;2.57;99.36
51261;BME280;61705;46.228;24.812;2023-11-25T00:20:10;95664.84;;;2.53;99.37
51261;BME280;61705;46.228;24.812;2023-11-25T00:22:36;95675.13;;;2.56;99.49
51261;BME280;61705;46.228;24.812;2023-11-25T00:25:06;95657.91;;;2.52;99.67
51261;BME280;61705;46.228;24.812;2023-11-25T00:27:35;95659.13;;;2.45;99.74
51261;BME280;61705;46.228;24.812;2023-11-25T00:30:03;95658.38;;;2.43;100.00
51261;BME280;61705;46.228;24.812;2023-11-25T00:32:33;95663.50;;;2.45;100.00
51261;BME280;61705;46.228;24.812;2023-11-25T00:35:09;95671.31;;;2.45;100.00
51261;BME280;61705;46.228;24.812;2023-11-25T00:37:37;95669.69;;;2.42;100.00
51261;BME280;61705;46.228;24.812;2023-11-25T00:40:04;95668.84;;;2.42;100.00
51261;BME280;61705;46.228;24.812;2023-11-25T00:42:34;95674.06;;;2.42;100.00
51261;BME280;61705;46.228;24.812;2023-11-25T00:45:01;95674.13;;;2.40;100.00
51261;BME280;61705;46.228;24.812;2023-11-25T00:47:27;95672.44;;;2.39;100.00
51261;BME280;61705;46.228;24.812;2023-11-25T00:49:54;95668.94;;;2.40;100.00
51261;BME280;61705;46.228;24.812;2023-11-25T00:52:22;95670.53;;;2.43;100.00
51261;BME280;61705;46.228;24.812;2023-11-25T00:54:48;95659.63;;;2.34;100.00
51261;BME280;61705;46.228;24.812;2023-11-25T00:57:15;95647.50;;;2.33;100.00
51261;BME280;61705;46.228;24.812;2023-11-25T00:59:41;95650.72;;;2.38;100.00
51261;BME280;61705;46.228;24.812;2023-11-25T01:02:08;95630.59;;;2.42;100.00
51261;BME280;61705;46.228;24.812;2023-11-25T01:04:35;95631.28;;;2.46;100.00
51261;BME280;61705;46.228;24.812;2023-11-25T01:07:01;95619.03;;;2.48;100.00
51261;BME280;61705;46.228;24.812;2023-11-25T01:09:28;95617.22;;;2.50;100.00
51261;BME280;61705;46.228;24.812;2023-11-25T01:11:58;95616.56;;;2.45;100.00
51261;BME280;61705;46.228;24.812;2023-11-25T01:14:24;95616.53;;;2.46;100.00
51261;BME280;61705;46.228;24.812;2023-11-25T01:16:52;95608.69;;;2.46;100.00
51261;BME280;61705;46.228;24.812;2023-11-25T01:19:19;95595.81;;;2.43;100.00
51261;BME280;61705;46.228;24.812;2023-11-25T01:21:46;95587.72;;;2.30;100.00
51261;BME280;61705;46.228;24.812;2023-11-25T01:24:12;95582.63;;;2.27;100.00
51261;BME280;61705;46.228;24.812;2023-11-25T01:26:39;95573.19;;;2.25;100.00
51261;BME280;61705;46.228;24.812;2023-11-25T01:29:05;95582.78;;;2.24;100.00
51261;BME280;61705;46.228;24.812;2023-11-25T01:31:33;95590.72;;;2.21;100.00
51261;BME280;61705;46.228;24.812;2023-11-25T01:34:00;95588.13;;;2.21;100.00
51261;BME280;61705;46.228;24.812;2023-11-25T01:36:28;95601.16;;;2.21;100.00
51261;BME280;61705;46.228;24.812;2023-11-25T01:38:54;95600.19;;;2.24;100.00
51261;BME280;61705;46.228;24.812;2023-11-25T01:41:21;95594.25;;;2.20;100.00
51261;BME280;61705;46.228;24.812;2023-11-25T01:43:48;95589.75;;;2.24;100.00
51261;BME280;61705;46.228;24.812;2023-11-25T01:46:23;95587.94;;;2.26;100.00
51261;BME280;61705;46.228;24.812;2023-11-25T01:48:55;95581.22;;;2.20;100.00
51261;BME280;61705;46.228;24.812;2023-11-25T01:51:21;95578.19;;;2.10;100.00
51261;BME280;61705;46.228;24.812;2023-11-25T01:53:48;95567.72;;;2.12;100.00
51261;BME280;61705;46.228;24.812;2023-11-25T01:56:15;95562.53;;;2.12;100.00
51261;BME280;61705;46.228;24.812;2023-11-25T01:58:41;95559.03;;;2.11;100.00
51261;BME280;61705;46.228;24.812;2023-11-25T02:01:08;95553.06;;;2.09;100.00
51261;BME280;61705;46.228;24.812;2023-11-25T02:03:35;95563.69;;;2.05;100.00
51261;BME280;61705;46.228;24.812;2023-11-25T02:06:02;95572.66;;;1.99;100.00
51261;BME280;61705;46.228;24.812;2023-11-25T02:08:29;95571.94;;;1.96;100.00
51261;BME280;61705;46.228;24.812;2023-11-25T02:10:55;95556.47;;;1.93;100.00
51261;BME280;61705;46.228;24.812;2023-11-25T02:13:23;95554.59;;;1.95;100.00
51261;BME280;61705;46.228;24.812;2023-11-25T02:15:53;95544.38;;;1.92;100.00
51261;BME280;61705;46.228;24.812;2023-11-25T02:18:20;95550.59;;;1.87;100.00
51261;BME280;61705;46.228;24.812;2023-11-25T02:20:47;95550.69;;;1.86;100.00
51261;BME280;61705;46.228;24.812;2023-11-25T02:23:19;95561.31;;;1.81;100.00
51261;BME280;61705;46.228;24.812;2023-11-25T02:25:46;95563.97;;;1.80;100.00
51261;BME280;61705;46.228;24.812;2023-11-25T02:28:16;95553.97;;;1.71;100.00
51261;BME280;61705;46.228;24.812;2023-11-25T02:30:43;95554.19;;;1.66;100.00
51261;BME280;61705;46.228;24.812;2023-11-25T02:33:09;95558.09;;;1.56;100.00
51261;BME280;61705;46.228;24.812;2023-11-25T02:35:36;95554.44;;;1.41;100.00
51261;BME280;61705;46.228;24.812;2023-11-25T02:38:03;95556.94;;;1.42;100.00
51261;BME280;61705;46.228;24.812;2023-11-25T02:40:31;95558.09;;;1.37;100.00
51261;BME280;61705;46.228;24.812;2023-11-25T02:43:01;95571.09;;;1.37;100.00
51261;BME280;61705;46.228;24.812;2023-11-25T02:45:28;95567.50;;;1.39;100.00
51261;BME280;61705;46.228;24.812;2023-11-25T02:47:54;95577.84;;;1.41;100.00
51261;BME280;61705;46.228;24.812;2023-11-25T02:50:21;95572.50;;;1.44;100.00
51261;BME280;61705;46.228;24.812;2023-11-25T02:52:48;95565.78;;;1.59;100.00
51261;BME280;61705;46.228;24.812;2023-11-25T02:55:15;95572.47;;;1.64;100.00
51261;BME280;61705;46.228;24.812;2023-11-25T02:57:43;95571.69;;;1.62;100.00
51261;BME280;61705;46.228;24.812;2023-11-25T03:00:10;95576.91;;;1.62;100.00
51261;BME280;61705;46.228;24.812;2023-11-25T03:02:49;95572.53;;;1.63;100.00
51261;BME280;61705;46.228;24.812;2023-11-25T03:05:26;95566.56;;;1.61;100.00
51261;BME280;61705;46.228;24.812;2023-11-25T03:07:53;95572.63;;;1.61;100.00
51261;BME280;61705;46.228;24.812;2023-11-25T03:10:23;95579.41;;;1.64;100.00
51261;BME280;61705;46.228;24.812;2023-11-25T03:12:50;95579.63;;;1.59;100.00
51261;BME280;61705;46.228;24.812;2023-11-25T03:15:17;95571.91;;;1.58;100.00
51261;BME280;61705;46.228;24.812;2023-11-25T03:17:44;95572.88;;;1.55;100.00
51261;BME280;61705;46.228;24.812;2023-11-25T03:20:11;95573.84;;;1.53;100.00
51261;BME280;61705;46.228;24.812;2023-11-25T03:22:37;95564.22;;;1.55;100.00
51261;BME280;61705;46.228;24.812;2023-11-25T03:25:07;95569.44;;;1.55;100.00
51261;BME280;61705;46.228;24.812;2023-11-25T03:27:33;95558.91;;;1.58;100.00
51261;BME280;61705;46.228;24.812;2023-11-25T03:30:02;95557.84;;;1.62;100.00
51261;BME280;61705;46.228;24.812;2023-11-25T03:32:29;95551.56;;;1.66;100.00
51261;BME280;61705;46.228;24.812;2023-11-25T03:34:55;95548.13;;;1.65;100.00
51261;BME280;61705;46.228;24.812;2023-11-25T03:37:26;95551.44;;;1.69;100.00
51261;BME280;61705;46.228;24.812;2023-11-25T03:39:53;95549.81;;;1.66;100.00
51261;BME280;61705;46.228;24.812;2023-11-25T03:42:20;95556.06;;;1.62;100.00
51261;BME280;61705;46.228;24.812;2023-11-25T03:44:47;95545.44;;;1.67;100.00
51261;BME280;61705;46.228;24.812;2023-11-25T03:47:14;95553.91;;;1.72;100.00
51261;BME280;61705;46.228;24.812;2023-11-25T03:49:40;95561.84;;;1.69;100.00
51261;BME280;61705;46.228;24.812;2023-11-25T03:52:07;95558.47;;;1.67;100.00
51261;BME280;61705;46.228;24.812;2023-11-25T03:54:34;95554.19;;;1.66;100.00
51261;BME280;61705;46.228;24.812;2023-11-25T03:57:00;95564.09;;;1.77;100.00
51261;BME280;61705;46.228;24.812;2023-11-25T03:59:27;95570.28;;;1.74;100.00
51261;BME280;61705;46.228;24.812;2023-11-25T04:01:53;95567.69;;;1.74;100.00
51261;BME280;61705;46.228;24.812;2023-11-25T04:04:20;95563.19;;;1.78;100.00
51261;BME280;61705;46.228;24.812;2023-11-25T04:06:47;95567.38;;;1.82;100.00
51261;BME280;61705;46.228;24.812;2023-11-25T04:09:13;95564.69;;;1.83;100.00
51261;BME280;61705;46.228;24.812;2023-11-25T04:11:40;95555.94;;;1.84;100.00
51261;BME280;61705;46.228;24.812;2023-11-25T04:14:08;95557.78;;;1.82;100.00
51261;BME280;61705;46.228;24.812;2023-11-25T04:16:34;95564.75;;;1.82;100.00
51261;BME280;61705;46.228;24.812;2023-11-25T04:19:01;95563.91;;;1.81;100.00
51261;BME280;61705;46.228;24.812;2023-11-25T04:21:27;95561.38;;;1.80;100.00
51261;BME280;61705;46.228;24.812;2023-11-25T04:23:54;95554.63;;;1.76;100.00
51261;BME280;61705;46.228;24.812;2023-11-25T04:26:24;95554.41;;;1.80;100.00
51261;BME280;61705;46.228;24.812;2023-11-25T04:28:53;95547.50;;;1.79;100.00
51261;BME280;61705;46.228;24.812;2023-11-25T04:31:20;95544.78;;;1.82;100.00
51261;BME280;61705;46.228;24.812;2023-11-25T04:33:47;95538.63;;;1.83;100.00
51261;BME280;61705;46.228;24.812;2023-11-25T04:36:13;95547.50;;;1.79;100.00
51261;BME280;61705;46.228;24.812;2023-11-25T04:38:44;95550.38;;;1.73;100.00
51261;BME280;61705;46.228;24.812;2023-11-25T04:41:12;95545.53;;;1.65;100.00
51261;BME280;61705;46.228;24.812;2023-11-25T04:43:39;95554.03;;;1.69;100.00
51261;BME280;61705;46.228;24.812;2023-11-25T04:46:09;95548.13;;;1.65;100.00
51261;BME280;61705;46.228;24.812;2023-11-25T04:48:35;95536.78;;;1.66;100.00
51261;BME280;61705;46.228;24.812;2023-11-25T04:51:02;95521.88;;;1.70;100.00
51261;BME280;61705;46.228;24.812;2023-11-25T04:53:29;95532.50;;;1.65;100.00
51261;BME280;61705;46.228;24.812;2023-11-25T04:55:55;95538.69;;;1.63;100.00
51261;BME280;61705;46.228;24.812;2023-11-25T04:58:22;95543.97;;;1.61;100.00
51261;BME280;61705;46.228;24.812;2023-11-25T05:00:49;95541.44;;;1.60;100.00
51261;BME280;61705;46.228;24.812;2023-11-25T05:03:16;95545.16;;;1.54;100.00
51261;BME280;61705;46.228;24.812;2023-11-25T05:05:45;95541.78;;;1.52;100.00
51261;BME280;61705;46.228;24.812;2023-11-25T05:08:12;95541.56;;;1.57;100.00
51261;BME280;61705;46.228;24.812;2023-11-25T05:10:39;95544.81;;;1.62;100.00
51261;BME280;61705;46.228;24.812;2023-11-25T05:13:06;95540.38;;;1.64;100.00
51261;BME280;61705;46.228;24.812;2023-11-25T05:15:33;95548.34;;;1.61;100.00
51261;BME280;61705;46.228;24.812;2023-11-25T05:18:01;95547.34;;;1.63;100.00
51261;BME280;61705;46.228;24.812;2023-11-25T05:20:29;95556.72;;;1.68;100.00
51261;BME280;61705;46.228;24.812;2023-11-25T05:22:56;95556.66;;;1.69;100.00
51261;BME280;61705;46.228;24.812;2023-11-25T05:25:22;95559.13;;;1.72;100.00
51261;BME280;61705;46.228;24.812;2023-11-25T05:27:49;95558.28;;;1.72;100.00
51261;BME280;61705;46.228;24.812;2023-11-25T05:30:16;95551.34;;;1.71;100.00
51261;BME280;61705;46.228;24.812;2023-11-25T05:32:43;95542.53;;;1.75;100.00
51261;BME280;61705;46.228;24.812;2023-11-25T05:35:11;95536.38;;;1.76;100.00
51261;BME280;61705;46.228;24.812;2023-11-25T05:37:40;95527.59;;;1.78;100.00
51261;BME280;61705;46.228;24.812;2023-11-25T05:40:09;95517.81;;;1.83;100.00
51261;BME280;61705;46.228;24.812;2023-11-25T05:42:42;95526.69;;;1.79;100.00
51261;BME280;61705;46.228;24.812;2023-11-25T05:45:15;95528.16;;;1.85;100.00
51261;BME280;61705;46.228;24.812;2023-11-25T05:47:44;95533.94;;;1.92;100.00
51261;BME280;61705;46.228;24.812;2023-11-25T05:50:11;95535.50;;;1.96;100.00
51261;BME280;61705;46.228;24.812;2023-11-25T05:52:38;95531.81;;;2.00;100.00
51261;BME280;61705;46.228;24.812;2023-11-25T05:55:06;95547.50;;;1.98;100.00
51261;BME280;61705;46.228;24.812;2023-11-25T05:57:32;95554.34;;;1.82;100.00
51261;BME280;61705;46.228;24.812;2023-11-25T06:00:02;95550.69;;;1.86;100.00
51261;BME280;61705;46.228;24.812;2023-11-25T06:02:28;95545.06;;;1.95;100.00
51261;BME280;61705;46.228;24.812;2023-11-25T06:04:55;95548.50;;;1.96;100.00
51261;BME280;61705;46.228;24.812;2023-11-25T06:07:23;95541.41;;;1.99;100.00
51261;BME280;61705;46.228;24.812;2023-11-25T06:09:49;95548.41;;;1.97;100.00
51261;BME280;61705;46.228;24.812;2023-11-25T06:12:28;95548.50;;;1.96;100.00
51261;BME280;61705;46.228;24.812;2023-11-25T06:14:55;95557.38;;;1.92;100.00
51261;BME280;61705;46.228;24.812;2023-11-25T06:17:28;95562.22;;;1.99;100.00
51261;BME280;61705;46.228;24.812;2023-11-25T06:19:54;95563.28;;;1.95;100.00
51261;BME280;61705;46.228;24.812;2023-11-25T06:22:21;95560.94;;;2.08;100.00
51261;BME280;61705;46.228;24.812;2023-11-25T06:24:48;95567.28;;;2.21;100.00
51261;BME280;61705;46.228;24.812;2023-11-25T06:27:14;95572.63;;;2.18;100.00
51261;BME280;61705;46.228;24.812;2023-11-25T06:29:42;95572.56;;;2.20;100.00
51261;BME280;61705;46.228;24.812;2023-11-25T06:32:09;95574.47;;;2.16;100.00
51261;BME280;61705;46.228;24.812;2023-11-25T06:34:36;95577.16;;;2.14;100.00
51261;BME280;61705;46.228;24.812;2023-11-25T06:37:03;95581.00;;;2.25;100.00
51261;BME280;61705;46.228;24.812;2023-11-25T06:39:29;95577.44;;;2.27;100.00
51261;BME280;61705;46.228;24.812;2023-11-25T06:42:01;95591.94;;;2.33;100.00
51261;BME280;61705;46.228;24.812;2023-11-25T06:44:27;95589.53;;;2.28;100.00
51261;BME280;61705;46.228;24.812;2023-11-25T06:46:54;95588.91;;;2.23;100.00
51261;BME280;61705;46.228;24.812;2023-11-25T06:49:21;95583.00;;;2.20;100.00
51261;BME280;61705;46.228;24.812;2023-11-25T06:51:47;95591.38;;;2.26;100.00
51261;BME280;61705;46.228;24.812;2023-11-25T06:54:14;95584.13;;;2.33;100.00
51261;BME280;61705;46.228;24.812;2023-11-25T06:56:43;95594.22;;;2.39;100.00
51261;BME280;61705;46.228;24.812;2023-11-25T06:59:10;95595.09;;;2.40;100.00
51261;BME280;61705;46.228;24.812;2023-11-25T07:01:37;95589.34;;;2.33;100.00
51261;BME280;61705;46.228;24.812;2023-11-25T07:04:03;95584.81;;;2.36;100.00
51261;BME280;61705;46.228;24.812;2023-11-25T07:06:34;95586.94;;;2.28;100.00
51261;BME280;61705;46.228;24.812;2023-11-25T07:09:00;95583.34;;;2.31;100.00
51261;BME280;61705;46.228;24.812;2023-11-25T07:11:27;95584.81;;;2.36;100.00
51261;BME280;61705;46.228;24.812;2023-11-25T07:13:56;95594.31;;;2.37;100.00
51261;BME280;61705;46.228;24.812;2023-11-25T07:16:23;95594.31;;;2.37;100.00
51261;BME280;61705;46.228;24.812;2023-11-25T07:18:50;95593.34;;;2.40;100.00
51261;BME280;61705;46.228;24.812;2023-11-25T07:21:17;95607.78;;;2.47;100.00
51261;BME280;61705;46.228;24.812;2023-11-25T07:23:43;95604.25;;;2.48;100.00
51261;BME280;61705;46.228;24.812;2023-11-25T07:26:10;95603.53;;;2.45;100.00
51261;BME280;61705;46.228;24.812;2023-11-25T07:28:39;95608.69;;;2.46;100.00
51261;BME280;61705;46.228;24.812;2023-11-25T07:31:08;95608.63;;;2.48;100.00
51261;BME280;61705;46.228;24.812;2023-11-25T07:33:38;95610.28;;;2.49;100.00
51261;BME280;61705;46.228;24.812;2023-11-25T07:36:04;95604.25;;;2.48;100.00
51261;BME280;61705;46.228;24.812;2023-11-25T07:38:32;95602.56;;;2.47;100.00
51261;BME280;61705;46.228;24.812;2023-11-25T07:40:59;95602.47;;;2.49;100.00
51261;BME280;61705;46.228;24.812;2023-11-25T07:43:26;95603.25;;;2.51;100.00
51261;BME280;61705;46.228;24.812;2023-11-25T07:45:53;95606.34;;;2.59;100.00
51261;BME280;61705;46.228;24.812;2023-11-25T07:48:20;95603.81;;;2.57;100.00
51261;BME280;61705;46.228;24.812;2023-11-25T07:50:46;95603.59;;;2.62;100.00
51261;BME280;61705;46.228;24.812;2023-11-25T07:53:16;95598.00;;;2.70;100.00
51261;BME280;61705;46.228;24.812;2023-11-25T07:55:43;95592.63;;;2.73;100.00
51261;BME280;61705;46.228;24.812;2023-11-25T07:58:11;95588.25;;;2.73;100.00
51261;BME280;61705;46.228;24.812;2023-11-25T08:00:38;95590.13;;;2.71;100.00
51261;BME280;61705;46.228;24.812;2023-11-25T08:03:05;95596.16;;;2.72;100.00
51261;BME280;61705;46.228;24.812;2023-11-25T08:05:51;95592.59;;;2.74;100.00
51261;BME280;61705;46.228;24.812;2023-11-25T08:08:21;95597.56;;;2.79;100.00
51261;BME280;61705;46.228;24.812;2023-11-25T08:10:53;95583.03;;;2.73;100.00
51261;BME280;61705;46.228;24.812;2023-11-25T08:13:35;95584.66;;;2.76;100.00
51261;BME280;61705;46.228;24.812;2023-11-25T08:16:24;95588.25;;;2.73;100.00
51261;BME280;61705;46.228;24.812;2023-11-25T08:21:48;95585.66;;;2.73;100.00
51261;BME280;61705;46.228;24.812;2023-11-25T08:27:37;95603.72;;;2.78;100.00
51261;BME280;61705;46.228;24.812;2023-11-25T08:30:24;95609.63;;;2.81;100.00
51261;BME280;61705;46.228;24.812;2023-11-25T08:32:54;95602.09;;;2.75;100.00
51261;BME280;61705;46.228;24.812;2023-11-25T08:35:49;95595.03;;;2.77;100.00
51261;BME280;61705;46.228;24.812;2023-11-25T08:38:53;95605.47;;;2.77;100.00
51261;BME280;61705;46.228;24.812;2023-11-25T08:41:50;95604.47;;;2.80;100.00
51261;BME280;61705;46.228;24.812;2023-11-25T08:45:41;95604.53;;;2.78;100.00
51261;BME280;61705;46.228;24.812;2023-11-25T08:48:48;95578.22;;;2.83;99.76
51261;BME280;61705;46.228;24.812;2023-11-25T08:51:25;95577.53;;;2.79;99.58
51261;BME280;61705;46.228;24.812;2023-11-25T08:54:36;95584.22;;;2.85;99.91
51261;BME280;61705;46.228;24.812;2023-11-25T08:57:20;95605.09;;;2.85;99.79
51261;BME280;61705;46.228;24.812;2023-11-25T09:00:27;95604.44;;;2.99;99.69
51261;BME280;61705;46.228;24.812;2023-11-25T09:03:18;95596.06;;;3.09;99.89
51261;BME280;61705;46.228;24.812;2023-11-25T09:06:25;95594.84;;;3.17;99.49
51261;BME280;61705;46.228;24.812;2023-11-25T09:08:53;95596.84;;;3.12;99.33
51261;BME280;61705;46.228;24.812;2023-11-25T09:12:01;95585.47;;;3.13;99.56
51261;BME280;61705;46.228;24.812;2023-11-25T09:14:49;95556.38;;;3.20;99.41
51261;BME280;61705;46.228;24.812;2023-11-25T09:17:15;95571.34;;;3.17;99.22
51261;BME280;61705;46.228;24.812;2023-11-25T09:19:42;95575.56;;;3.19;99.48
51261;BME280;61705;46.228;24.812;2023-11-25T09:22:10;95576.81;;;3.29;99.17
51261;BME280;61705;46.228;24.812;2023-11-25T09:24:38;95560.00;;;3.35;98.69
51261;BME280;61705;46.228;24.812;2023-11-25T09:27:08;95557.38;;;3.35;98.44
51261;BME280;61705;46.228;24.812;2023-11-25T09:29:35;95568.88;;;3.31;98.31
51261;BME280;61705;46.228;24.812;2023-11-25T09:32:03;95567.19;;;3.30;97.91
51261;BME280;61705;46.228;24.812;2023-11-25T09:34:30;95555.22;;;3.26;97.34
51261;BME280;61705;46.228;24.812;2023-11-25T09:40:11;95576.00;;;3.45;97.14
51261;BME280;61705;46.228;24.812;2023-11-25T09:46:16;95590.59;;;3.31;97.01
51261;BME280;61705;46.228;24.812;2023-11-25T09:48:43;95582.94;;;3.28;96.83
51261;BME280;61705;46.228;24.812;2023-11-25T09:51:09;95576.41;;;3.20;96.73
51261;BME280;61705;46.228;24.812;2023-11-25T09:53:40;95568.00;;;3.15;96.48
51261;BME280;61705;46.228;24.812;2023-11-25T09:56:10;95571.66;;;3.11;96.53
51261;BME280;61705;46.228;24.812;2023-11-25T09:58:40;95577.72;;;3.11;96.98
51261;BME280;61705;46.228;24.812;2023-11-25T10:01:06;95580.50;;;3.08;97.00
51261;BME280;61705;46.228;24.812;2023-11-25T10:03:37;95576.13;;;3.08;97.36
51261;BME280;61705;46.228;24.812;2023-11-25T10:06:05;95571.44;;;2.98;97.30
51261;BME280;61705;46.228;24.812;2023-11-25T10:08:32;95567.91;;;2.99;97.43
51261;BME280;61705;46.228;24.812;2023-11-25T10:11:03;95564.38;;;3.00;97.52
51261;BME280;61705;46.228;24.812;2023-11-25T10:13:35;95554.22;;;2.94;97.62
51261;BME280;61705;46.228;24.812;2023-11-25T10:16:03;95550.41;;;3.01;97.68
51261;BME280;61705;46.228;24.812;2023-11-25T10:18:30;95548.66;;;3.01;97.47
51261;BME280;61705;46.228;24.812;2023-11-25T10:21:01;95561.75;;;3.00;97.65
51261;BME280;61705;46.228;24.812;2023-11-25T10:23:32;95559.00;;;3.03;97.65
51261;BME280;61705;46.228;24.812;2023-11-25T10:26:01;95552.25;;;2.99;97.59
51261;BME280;61705;46.228;24.812;2023-11-25T10:28:31;95556.78;;;3.13;98.16
51261;BME280;61705;46.228;24.812;2023-11-25T10:31:03;95554.94;;;3.15;97.69
51261;BME280;61705;46.228;24.812;2023-11-25T10:33:32;95547.94;;;3.15;97.38
51261;BME280;61705;46.228;24.812;2023-11-25T10:36:00;95535.91;;;3.13;97.12
51261;BME280;61705;46.228;24.812;2023-11-25T10:38:31;95531.91;;;3.05;97.07
51261;BME280;61705;46.228;24.812;2023-11-25T10:43:27;95524.34;;;3.01;97.38
51261;BME280;61705;46.228;24.812;2023-11-25T10:46:03;95517.34;;;3.01;97.69
51261;BME280;61705;46.228;24.812;2023-11-25T10:48:30;95524.63;;;2.95;97.50
51261;BME280;61705;46.228;24.812;2023-11-25T10:50:57;95511.66;;;2.93;97.62
51261;BME280;61705;46.228;24.812;2023-11-25T10:53:27;95514.94;;;2.97;97.60
51261;BME280;61705;46.228;24.812;2023-11-25T10:55:55;95505.34;;;2.97;97.56
51261;BME280;61705;46.228;24.812;2023-11-25T10:58:22;95495.09;;;2.94;97.36
51261;BME280;61705;46.228;24.812;2023-11-25T11:00:50;95499.81;;;3.03;97.57
51261;BME280;61705;46.228;24.812;2023-11-25T11:03:17;95505.44;;;2.96;97.46
51261;BME280;61705;46.228;24.812;2023-11-25T11:08:24;95513.81;;;3.02;97.42
51261;BME280;61705;46.228;24.812;2023-11-25T11:11:00;95510.56;;;3.32;97.50
51261;BME280;61705;46.228;24.812;2023-11-25T11:13:31;95506.69;;;3.39;96.80
51261;BME280;61705;46.228;24.812;2023-11-25T11:16:02;95513.41;;;3.61;96.65
51261;BME280;61705;46.228;24.812;2023-11-25T11:18:34;95513.50;;;3.59;95.95
51261;BME280;61705;46.228;24.812;2023-11-25T11:21:04;95511.94;;;3.55;95.86
51261;BME280;61705;46.228;24.812;2023-11-25T11:23:32;95515.22;;;3.59;95.74
51261;BME280;61705;46.228;24.812;2023-11-25T11:33:38;95504.56;;;3.30;97.15
51261;BME280;61705;46.228;24.812;2023-11-25T11:36:05;95495.44;;;3.21;96.24
51261;BME280;61705;46.228;24.812;2023-11-25T11:38:35;95493.66;;;3.39;96.85
51261;BME280;61705;46.228;24.812;2023-11-25T11:43:39;95490.34;;;3.36;96.96
51261;BME280;61705;46.228;24.812;2023-11-25T11:46:06;95481.50;;;3.38;96.87
51261;BME280;61705;46.228;24.812;2023-11-25T11:48:35;95479.81;;;3.37;96.77
51261;BME280;61705;46.228;24.812;2023-11-25T11:51:04;95487.09;;;3.48;96.49
51261;BME280;61705;46.228;24.812;2023-11-25T11:53:35;95482.03;;;3.45;94.82
51261;BME280;61705;46.228;24.812;2023-11-25T11:56:02;95485.31;;;3.48;95.60
51261;BME280;61705;46.228;24.812;2023-11-25T11:58:29;95491.72;;;3.43;95.60
51261;BME280;61705;46.228;24.812;2023-11-25T12:03:27;95466.50;;;3.42;96.01
51261;BME280;61705;46.228;24.812;2023-11-25T12:05:53;95448.97;;;3.28;93.82
51261;BME280;61705;46.228;24.812;2023-11-25T12:08:20;95444.31;;;3.17;93.04
51261;BME280;61705;46.228;24.812;2023-11-25T12:10:47;95449.59;;;3.33;93.37
51261;BME280;61705;46.228;24.812;2023-11-25T12:15:56;95444.72;;;3.43;92.87
51261;BME280;61705;46.228;24.812;2023-11-25T12:18:27;95438.72;;;3.25;91.18
51261;BME280;61705;46.228;24.812;2023-11-25T12:20:54;95432.63;;;3.24;90.69
51261;BME280;61705;46.228;24.812;2023-11-25T12:23:21;95432.56;;;3.26;90.93
51261;BME280;61705;46.228;24.812;2023-11-25T12:26:06;95430.31;;;3.36;91.38
51261;BME280;61705;46.228;24.812;2023-11-25T12:28:40;95423.53;;;3.49;92.44
51261;BME280;61705;46.228;24.812;2023-11-25T12:31:07;95417.63;;;3.45;93.20
51261;BME280;61705;46.228;24.812;2023-11-25T12:33:34;95421.91;;;3.46;93.04
51261;BME280;61705;46.228;24.812;2023-11-25T12:36:03;95437.91;;;3.40;92.41
51261;BME280;61705;46.228;24.812;2023-11-25T12:38:30;95440.41;;;3.42;92.24
51261;BME280;61705;46.228;24.812;2023-11-25T12:40:59;95455.16;;;3.43;93.05
51261;BME280;61705;46.228;24.812;2023-11-25T12:43:27;95452.19;;;3.33;92.38
51261;BME280;61705;46.228;24.812;2023-11-25T12:45:54;95446.38;;;3.28;91.94
51261;BME280;61705;46.228;24.812;2023-11-25T12:48:30;95439.47;;;3.27;92.56
51261;BME280;61705;46.228;24.812;2023-11-25T12:51:00;95438.81;;;3.06;91.17
51261;BME280;61705;46.228;24.812;2023-11-25T12:53:50;95434.28;;;3.09;90.33
51261;BME280;61705;46.228;24.812;2023-11-25T12:56:18;95427.75;;;3.18;91.27
51261;BME280;61705;46.228;24.812;2023-11-25T12:58:45;95431.72;;;3.25;92.18
51261;BME280;61705;46.228;24.812;2023-11-25T13:01:15;95423.91;;;3.25;92.54
51261;BME280;61705;46.228;24.812;2023-11-25T13:03:42;95420.94;;;3.16;92.49
51261;BME280;61705;46.228;24.812;2023-11-25T13:06:09;95415.88;;;3.13;92.54
51261;BME280;61705;46.228;24.812;2023-11-25T13:08:43;95412.16;;;3.17;93.05
51261;BME280;61705;46.228;24.812;2023-11-25T13:11:11;95411.50;;;3.13;93.16
51261;BME280;61705;46.228;24.812;2023-11-25T13:13:38;95426.22;;;3.14;93.36
51261;BME280;61705;46.228;24.812;2023-11-25T13:16:05;95416.47;;;3.18;93.33
51261;BME280;61705;46.228;24.812;2023-11-25T13:18:35;95430.75;;;3.11;93.18
51261;BME280;61705;46.228;24.812;2023-11-25T13:21:02;95430.00;;;3.08;93.34
51261;BME280;61705;46.228;24.812;2023-11-25T13:23:33;95419.03;;;3.02;93.33
51261;BME280;61705;46.228;24.812;2023-11-25T13:26:00;95421.97;;;2.96;93.23
51261;BME280;61705;46.228;24.812;2023-11-25T13:28:26;95420.19;;;2.96;93.20
51261;BME280;61705;46.228;24.812;2023-11-25T13:30:54;95413.56;;;2.91;92.86
51261;BME280;61705;46.228;24.812;2023-11-25T13:33:23;95408.81;;;2.97;92.91
51261;BME280;61705;46.228;24.812;2023-11-25T13:35:50;95411.84;;;2.90;92.68
51261;BME280;61705;46.228;24.812;2023-11-25T13:38:17;95407.88;;;2.82;92.85